createdAt,value
2023-03-25T00:00:39.879Z,80.39
2023-03-25T00:01:39.834Z,80.19
2023-03-25T00:02:39.893Z,80.90
2023-03-25T00:03:39.834Z,80.60
2023-03-25T00:04:39.847Z,81.10
2023-03-25T00:05:39.796Z,81.51
2023-03-25T00:06:39.775Z,82.03
2023-03-25T00:07:39.789Z,81.93
2023-03-25T00:08:39.757Z,81.65
2023-03-25T00:09:39.753Z,81.86
2023-03-25T00:10:39.737Z,81.76
2023-03-25T00:11:39.729Z,81.72
2023-03-25T00:12:39.745Z,81.65
2023-03-25T00:13:39.706Z,81.76
2023-03-25T00:14:39.705Z,82.13
2023-03-25T00:15:39.682Z,81.96
2023-03-25T00:16:39.685Z,82.37
2023-03-25T00:17:39.684Z,82.07
2023-03-25T00:18:39.666Z,82.03
2023-03-25T00:19:39.655Z,81.86
2023-03-25T00:20:39.633Z,82.68
2023-03-25T00:21:39.617Z,82.48
2023-03-25T00:22:39.598Z,82.68
2023-03-25T00:23:39.633Z,82.98
2023-03-25T00:24:39.588Z,83.39
2023-03-25T00:25:39.576Z,82.37
2023-03-25T00:26:39.591Z,82.37
2023-03-25T00:27:39.556Z,81.96
2023-03-25T00:28:39.559Z,82.17
2023-03-25T00:29:39.548Z,82.89
2023-03-25T00:30:39.543Z,83.09
2023-03-25T00:31:39.509Z,82.98
2023-03-25T00:32:39.514Z,83.19
2023-03-25T00:33:39.474Z,82.68
2023-03-25T00:34:39.488Z,83.29
2023-03-25T00:35:39.604Z,82.37
2023-03-25T00:36:39.453Z,82.07
2023-03-25T00:37:39.444Z,82.68
2023-03-25T00:38:39.432Z,83.50
2023-03-25T00:39:39.425Z,83.19
2023-03-25T00:40:39.404Z,83.13
2023-03-25T00:41:39.382Z,83.33
2023-03-25T00:42:39.406Z,83.19
2023-03-25T00:43:39.385Z,83.44
2023-03-25T00:44:39.362Z,82.82
2023-03-25T00:45:39.396Z,82.98
2023-03-25T00:46:39.377Z,82.78
2023-03-25T00:47:39.381Z,82.98
2023-03-25T00:48:39.321Z,83.19
2023-03-25T00:49:39.308Z,83.50
2023-03-25T00:50:39.301Z,82.89
2023-03-25T00:51:53.240Z,82.98
2023-03-25T00:52:40.278Z,83.09
2023-03-25T00:53:39.273Z,82.92
2023-03-25T00:54:39.261Z,82.98
2023-03-25T00:55:39.235Z,82.89
2023-03-25T00:56:39.251Z,82.89
2023-03-25T00:57:39.252Z,83.29
2023-03-25T00:58:39.212Z,82.62
2023-03-25T00:59:39.199Z,83.33
2023-03-25T01:00:39.187Z,83.23
2023-03-25T01:01:39.208Z,83.23
2023-03-25T01:02:39.452Z,83.23
2023-03-25T01:03:39.325Z,83.84
2023-03-25T01:04:41.566Z,83.47
2023-03-25T01:05:39.123Z,84.25
2023-03-25T01:06:39.145Z,84.46
2023-03-25T01:07:39.134Z,84.15
2023-03-25T01:08:39.111Z,83.54
2023-03-25T01:09:39.095Z,83.33
2023-03-25T01:10:39.097Z,83.54
2023-03-25T01:11:39.070Z,83.74
2023-03-25T01:12:39.047Z,83.88
2023-03-25T01:13:39.037Z,84.09
2023-03-25T01:14:39.037Z,83.88
2023-03-25T01:15:39.073Z,84.05
2023-03-25T01:16:39.032Z,84.09
2023-03-25T01:17:39.052Z,84.19
2023-03-25T01:18:38.993Z,84.60
2023-03-25T01:19:38.977Z,84.25
2023-03-25T01:20:38.964Z,84.09
2023-03-25T01:21:38.999Z,84.25
2023-03-25T01:22:38.949Z,83.95
2023-03-25T01:23:38.958Z,84.19
2023-03-25T01:24:38.928Z,83.37
2023-03-25T01:25:38.918Z,84.25
2023-03-25T01:26:38.902Z,83.68
2023-03-25T01:27:38.907Z,83.98
2023-03-25T01:28:38.878Z,84.19
2023-03-25T01:29:38.871Z,83.47
2023-03-25T01:30:38.867Z,84.05
2023-03-25T01:31:38.945Z,84.19
2023-03-25T01:32:38.881Z,84.09
2023-03-25T01:33:38.821Z,84.19
2023-03-25T01:34:38.873Z,84.33
2023-03-25T01:35:38.858Z,83.98
2023-03-25T01:36:38.783Z,83.98
2023-03-25T01:37:38.805Z,83.88
2023-03-25T01:38:38.777Z,84.29
2023-03-25T01:39:38.805Z,84.29
2023-03-25T01:40:38.749Z,84.29
2023-03-25T01:41:49.227Z,84.19
2023-03-25T01:42:39.745Z,83.78
2023-03-25T01:43:38.728Z,84.39
2023-03-25T01:44:38.703Z,83.92
2023-03-25T01:45:38.691Z,84.09
2023-03-25T01:46:38.726Z,84.53
2023-03-25T01:47:38.699Z,84.33
2023-03-25T01:48:38.686Z,84.03
2023-03-25T01:49:38.671Z,84.33
2023-03-25T01:50:38.636Z,84.23
2023-03-25T01:51:38.632Z,83.98
2023-03-25T01:52:38.612Z,83.98
2023-03-25T01:53:38.612Z,84.12
2023-03-25T01:54:38.618Z,84.23
2023-03-25T01:55:38.629Z,84.23
2023-03-25T01:56:38.587Z,84.03
2023-03-25T01:57:38.566Z,84.53
2023-03-25T01:58:38.554Z,84.44
2023-03-25T01:59:38.535Z,83.92
2023-03-25T02:00:38.534Z,83.92
2023-03-25T02:01:38.537Z,84.53
2023-03-25T02:02:38.524Z,84.23
2023-03-25T02:03:38.520Z,84.23
2023-03-25T02:04:38.490Z,84.50
2023-03-25T02:05:38.470Z,84.03
2023-03-25T02:06:38.491Z,84.33
2023-03-25T02:07:38.460Z,84.19
2023-03-25T02:08:38.456Z,84.29
2023-03-25T02:09:38.437Z,83.82
2023-03-25T02:10:38.448Z,84.19
2023-03-25T02:11:38.462Z,84.29
2023-03-25T02:12:38.415Z,83.98
2023-03-25T02:13:38.390Z,84.53
2023-03-25T02:14:38.379Z,84.39
2023-03-25T02:15:38.376Z,84.29
2023-03-25T02:16:38.416Z,83.92
2023-03-25T02:17:38.342Z,83.98
2023-03-25T02:18:38.342Z,83.92
2023-03-25T02:19:38.319Z,84.29
2023-03-25T02:20:38.321Z,84.29
2023-03-25T02:21:38.299Z,83.98
2023-03-25T02:22:38.312Z,84.29
2023-03-25T02:23:38.282Z,84.50
2023-03-25T02:24:38.267Z,84.09
2023-03-25T02:25:38.269Z,83.23
2023-03-25T02:26:38.257Z,83.54
2023-03-25T02:27:38.279Z,83.33
2023-03-25T02:28:38.229Z,82.92
2023-03-25T02:29:38.218Z,82.98
2023-03-25T02:30:38.233Z,83.33
2023-03-25T02:31:38.363Z,82.78
2023-03-25T02:32:38.228Z,82.37
2023-03-25T02:33:38.169Z,82.17
2023-03-25T02:34:38.193Z,82.41
2023-03-25T02:35:38.161Z,82.51
2023-03-25T02:36:38.133Z,82.00
2023-03-25T02:37:38.129Z,81.96
2023-03-25T02:38:38.121Z,82.37
2023-03-25T02:39:38.099Z,82.57
2023-03-25T02:40:38.103Z,81.96
2023-03-25T02:41:38.082Z,82.48
2023-03-25T02:42:38.082Z,81.90
2023-03-25T02:43:38.093Z,82.27
2023-03-25T02:44:38.055Z,82.71
2023-03-25T02:45:38.098Z,82.51
2023-03-25T02:46:38.045Z,82.51
2023-03-25T02:47:38.073Z,82.51
2023-03-25T02:48:38.011Z,83.13
2023-03-25T02:49:38.002Z,83.13
2023-03-25T02:50:37.985Z,82.92
2023-03-25T02:51:37.985Z,82.82
2023-03-25T02:52:37.978Z,83.23
2023-03-25T02:53:37.980Z,83.17
2023-03-25T02:54:37.951Z,83.44
2023-03-25T02:55:39.013Z,83.58
2023-03-25T02:56:38.007Z,83.27
2023-03-25T02:57:37.927Z,83.47
2023-03-25T02:58:37.902Z,83.37
2023-03-25T02:59:37.923Z,83.47
2023-03-25T03:00:37.880Z,84.09
2023-03-25T03:01:37.966Z,84.15
2023-03-25T03:02:38.043Z,83.88
2023-03-25T03:03:37.877Z,83.03
2023-03-25T03:04:37.836Z,83.58
2023-03-25T03:05:37.831Z,83.23
2023-03-25T03:06:37.817Z,83.44
2023-03-25T03:07:37.824Z,83.44
2023-03-25T03:08:37.799Z,83.64
2023-03-25T03:09:37.777Z,83.44
2023-03-25T03:10:37.775Z,83.33
2023-03-25T03:11:37.765Z,83.27
2023-03-25T03:12:37.773Z,83.27
2023-03-25T03:13:37.753Z,83.44
2023-03-25T03:14:37.717Z,82.92
2023-03-25T03:15:37.742Z,83.44
2023-03-25T03:16:37.730Z,83.47
2023-03-25T03:17:37.740Z,83.44
2023-03-25T03:18:37.777Z,84.36
2023-03-25T03:19:37.688Z,83.64
2023-03-25T03:20:37.653Z,83.44
2023-03-25T03:21:37.648Z,83.54
2023-03-25T03:22:37.633Z,84.36
2023-03-25T03:23:37.620Z,83.84
2023-03-25T03:24:37.630Z,85.07
2023-03-25T03:25:37.636Z,85.48
2023-03-25T03:26:37.587Z,86.55
2023-03-25T03:27:37.576Z,87.32
2023-03-25T03:28:37.577Z,86.71
2023-03-25T03:29:37.574Z,87.26
2023-03-25T03:30:37.547Z,87.37
2023-03-25T03:31:48.377Z,88.29
2023-03-25T03:32:38.581Z,88.08
2023-03-25T03:33:37.522Z,88.90
2023-03-25T03:34:37.518Z,89.00
2023-03-25T03:35:37.540Z,88.80
2023-03-25T03:36:37.495Z,88.18
2023-03-25T03:37:37.478Z,88.08
2023-03-25T03:38:37.460Z,88.80
2023-03-25T03:39:37.458Z,88.70
2023-03-25T03:40:37.466Z,89.11
2023-03-25T03:41:37.457Z,88.80
2023-03-25T03:42:37.417Z,89.36
2023-03-25T03:43:37.412Z,88.84
2023-03-25T03:44:37.412Z,89.15
2023-03-25T03:45:37.399Z,89.36
2023-03-25T03:46:37.445Z,89.42
2023-03-25T03:47:37.436Z,90.23
2023-03-25T03:48:37.361Z,90.07
2023-03-25T03:49:37.344Z,89.51
2023-03-25T03:50:37.358Z,89.25
2023-03-25T03:51:37.331Z,89.36
2023-03-25T03:52:37.311Z,89.25
2023-03-25T03:53:37.307Z,89.97
2023-03-25T03:54:37.302Z,91.09
2023-03-25T03:55:37.284Z,90.99
2023-03-25T03:56:37.546Z,91.61
2023-03-25T03:57:37.258Z,91.71
2023-03-25T03:58:37.241Z,91.09
2023-03-25T03:59:37.239Z,91.40
2023-03-25T04:00:37.220Z,91.40
2023-03-25T04:01:37.234Z,91.50
2023-03-25T04:02:37.234Z,90.95
2023-03-25T04:03:37.255Z,90.99
2023-03-25T04:04:37.184Z,90.44
2023-03-25T04:05:37.164Z,90.13
2023-03-25T04:06:37.160Z,90.07
2023-03-25T04:07:37.158Z,90.44
2023-03-25T04:08:37.148Z,90.64
2023-03-25T04:09:37.119Z,90.13
2023-03-25T04:10:37.121Z,90.54
2023-03-25T04:11:37.104Z,90.34
2023-03-25T04:12:37.094Z,90.17
2023-03-25T04:13:37.107Z,90.03
2023-03-25T04:14:37.073Z,89.92
2023-03-25T04:15:37.070Z,89.92
2023-03-25T04:16:37.077Z,90.23
2023-03-25T04:17:37.081Z,90.13
2023-03-25T04:18:37.045Z,89.83
2023-03-25T04:19:37.028Z,90.03
2023-03-25T04:20:37.009Z,90.03
2023-03-25T04:21:37.007Z,90.34
2023-03-25T04:22:37.007Z,90.44
2023-03-25T04:23:36.965Z,89.42
2023-03-25T04:24:36.976Z,89.27
2023-03-25T04:25:36.964Z,89.31
2023-03-25T04:26:36.938Z,89.42
2023-03-25T04:27:36.931Z,89.72
2023-03-25T04:28:36.928Z,89.27
2023-03-25T04:29:36.924Z,89.47
2023-03-25T04:30:36.889Z,89.37
2023-03-25T04:31:36.919Z,89.17
2023-03-25T04:32:36.911Z,89.27
2023-03-25T04:33:36.866Z,88.86
2023-03-25T04:34:36.879Z,88.76
2023-03-25T04:35:36.886Z,88.56
2023-03-25T04:36:36.863Z,87.84
2023-03-25T04:37:36.830Z,87.84
2023-03-25T04:38:36.816Z,87.73
2023-03-25T04:39:36.793Z,87.84
2023-03-25T04:40:36.778Z,88.56
2023-03-25T04:41:36.777Z,88.45
2023-03-25T04:42:36.779Z,87.63
2023-03-25T04:43:36.756Z,87.88
2023-03-25T04:44:36.746Z,88.04
2023-03-25T04:45:36.849Z,87.94
2023-03-25T04:46:36.725Z,87.43
2023-03-25T04:47:36.720Z,87.16
2023-03-25T04:48:36.704Z,87.77
2023-03-25T04:49:36.702Z,87.06
2023-03-25T04:50:36.679Z,87.67
2023-03-25T04:51:36.708Z,87.16
2023-03-25T04:52:36.657Z,87.37
2023-03-25T04:53:36.650Z,87.57
2023-03-25T04:54:36.648Z,87.57
2023-03-25T04:55:36.632Z,87.26
2023-03-25T04:56:36.618Z,87.57
2023-03-25T04:57:36.596Z,87.57
2023-03-25T04:58:36.585Z,87.16
2023-03-25T04:59:36.596Z,87.16
2023-03-25T05:00:36.575Z,87.06
2023-03-25T05:01:36.575Z,87.67
2023-03-25T05:02:36.571Z,86.85
2023-03-25T05:03:36.528Z,87.06
2023-03-25T05:04:36.556Z,87.37
2023-03-25T05:05:36.531Z,87.57
2023-03-25T05:06:36.505Z,87.47
2023-03-25T05:07:36.523Z,87.26
2023-03-25T05:08:36.479Z,87.47
2023-03-25T05:09:36.475Z,86.99
2023-03-25T05:10:36.489Z,87.26
2023-03-25T05:11:36.449Z,87.57
2023-03-25T05:12:36.436Z,86.65
2023-03-25T05:13:36.425Z,86.96
2023-03-25T05:14:36.407Z,87.26
2023-03-25T05:15:36.401Z,86.65
2023-03-25T05:16:36.437Z,86.85
2023-03-25T05:17:36.410Z,86.96
2023-03-25T05:18:36.361Z,87.16
2023-03-25T05:19:36.359Z,87.16
2023-03-25T05:20:36.337Z,87.37
2023-03-25T05:21:36.359Z,86.96
2023-03-25T05:22:36.331Z,87.10
2023-03-25T05:23:36.361Z,87.10
2023-03-25T05:24:36.314Z,87.51
2023-03-25T05:25:36.293Z,87.06
2023-03-25T05:26:36.278Z,86.96
2023-03-25T05:27:36.263Z,87.67
2023-03-25T05:28:36.266Z,86.55
2023-03-25T05:29:36.254Z,86.04
2023-03-25T05:30:36.239Z,87.06
2023-03-25T05:31:36.248Z,86.96
2023-03-25T05:32:36.222Z,87.06
2023-03-25T05:33:36.207Z,87.06
2023-03-25T05:34:36.212Z,87.06
2023-03-25T05:35:36.190Z,86.65
2023-03-25T05:36:36.170Z,86.55
2023-03-25T05:37:36.160Z,86.51
2023-03-25T05:38:36.178Z,85.89
2023-03-25T05:39:36.157Z,85.17
2023-03-25T05:40:36.123Z,84.87
2023-03-25T05:41:36.112Z,85.38
2023-03-25T05:42:36.102Z,85.07
2023-03-25T05:43:36.097Z,84.87
2023-03-25T05:44:36.107Z,85.38
2023-03-25T05:45:36.246Z,85.28
2023-03-25T05:46:36.087Z,84.36
2023-03-25T05:47:36.068Z,84.36
2023-03-25T05:48:36.056Z,84.15
2023-03-25T05:49:36.030Z,84.15
2023-03-25T05:50:36.041Z,84.25
2023-03-25T05:51:36.036Z,83.95
2023-03-25T05:52:35.994Z,84.15
2023-03-25T05:53:35.986Z,83.81
2023-03-25T05:54:35.967Z,84.11
2023-03-25T05:55:38.762Z,84.46
2023-03-25T05:56:35.979Z,83.81
2023-03-25T05:57:35.962Z,84.25
2023-03-25T05:58:35.934Z,83.50
2023-03-25T05:59:35.941Z,84.11
2023-03-25T06:00:37.242Z,83.60
2023-03-25T06:01:35.916Z,83.09
2023-03-25T06:02:35.956Z,83.19
2023-03-25T06:03:35.927Z,83.44
2023-03-25T06:04:35.870Z,83.09
2023-03-25T06:05:35.863Z,82.48
2023-03-25T06:06:35.877Z,82.17
2023-03-25T06:07:35.841Z,82.17
2023-03-25T06:08:35.836Z,82.27
2023-03-25T06:09:35.820Z,82.27
2023-03-25T06:10:35.803Z,82.37
2023-03-25T06:11:35.810Z,81.96
2023-03-25T06:12:35.790Z,81.35
2023-03-25T06:13:35.772Z,81.96
2023-03-25T06:14:35.768Z,81.65
2023-03-25T06:15:35.756Z,82.17
2023-03-25T06:16:36.048Z,81.56
2023-03-25T06:17:35.754Z,80.94
2023-03-25T06:18:35.717Z,81.96
2023-03-25T06:19:35.699Z,80.74
2023-03-25T06:20:35.734Z,80.63
2023-03-25T06:21:35.676Z,80.74
2023-03-25T06:22:35.674Z,80.74
2023-03-25T06:23:35.663Z,80.74
2023-03-25T06:24:35.675Z,80.22
2023-03-25T06:25:35.637Z,79.91
2023-03-25T06:26:35.632Z,79.98
2023-03-25T06:27:35.640Z,79.98
2023-03-25T06:28:35.617Z,80.08
2023-03-25T06:29:35.596Z,79.78
2023-03-25T06:30:35.601Z,79.84
2023-03-25T06:31:35.583Z,80.35
2023-03-25T06:32:35.581Z,80.05
2023-03-25T06:33:42.446Z,79.94
2023-03-25T06:34:36.541Z,80.05
2023-03-25T06:35:35.537Z,79.80
2023-03-25T06:36:35.520Z,79.29
2023-03-25T06:37:35.506Z,78.92
2023-03-25T06:38:35.501Z,78.82
2023-03-25T06:39:35.503Z,79.23
2023-03-25T06:40:35.478Z,78.99
2023-03-25T06:41:35.464Z,79.33
2023-03-25T06:42:35.461Z,79.13
2023-03-25T06:43:35.465Z,78.68
2023-03-25T06:44:35.685Z,78.52
2023-03-25T06:45:35.434Z,79.09
2023-03-25T06:46:35.493Z,79.02
2023-03-25T06:47:35.401Z,79.53
2023-03-25T06:48:35.387Z,79.64
2023-03-25T06:49:35.390Z,79.43
2023-03-25T06:50:35.367Z,79.64
2023-03-25T06:51:35.358Z,79.64
2023-03-25T06:52:35.337Z,79.94
2023-03-25T06:53:35.336Z,79.84
2023-03-25T06:54:35.317Z,80.05
2023-03-25T06:55:35.348Z,79.84
2023-03-25T06:56:35.340Z,79.94
2023-03-25T06:57:35.297Z,79.98
2023-03-25T06:58:35.523Z,79.84
2023-03-25T06:59:35.285Z,80.35
2023-03-25T07:00:35.256Z,80.05
2023-03-25T07:01:35.325Z,80.25
2023-03-25T07:02:35.243Z,79.80
2023-03-25T07:03:35.220Z,80.11
2023-03-25T07:04:35.209Z,79.64
2023-03-25T07:05:35.246Z,79.39
2023-03-25T07:06:35.198Z,80.01
2023-03-25T07:07:35.197Z,79.13
2023-03-25T07:08:35.181Z,79.94
2023-03-25T07:09:35.153Z,80.05
2023-03-25T07:10:35.143Z,80.15
2023-03-25T07:11:35.157Z,80.25
2023-03-25T07:12:35.128Z,79.84
2023-03-25T07:13:35.143Z,80.15
2023-03-25T07:14:35.118Z,80.25
2023-03-25T07:15:35.106Z,79.33
2023-03-25T07:16:35.171Z,79.60
2023-03-25T07:17:35.164Z,78.61
2023-03-25T07:18:35.057Z,78.68
2023-03-25T07:19:35.054Z,78.99
2023-03-25T07:20:35.036Z,79.19
2023-03-25T07:21:35.030Z,78.68
2023-03-25T07:22:35.059Z,79.09
2023-03-25T07:23:35.009Z,78.54
2023-03-25T07:24:34.998Z,78.58
2023-03-25T07:25:34.989Z,78.34
2023-03-25T07:26:34.984Z,77.66
2023-03-25T07:27:34.960Z,77.97
2023-03-25T07:28:34.987Z,77.76
2023-03-25T07:29:34.946Z,78.34
2023-03-25T07:30:34.956Z,77.83
2023-03-25T07:31:34.977Z,78.23
2023-03-25T07:32:34.913Z,76.60
2023-03-25T07:33:34.916Z,76.36
2023-03-25T07:34:34.924Z,75.95
2023-03-25T07:35:34.906Z,75.34
2023-03-25T07:36:34.878Z,75.41
2023-03-25T07:37:34.853Z,74.38
2023-03-25T07:38:34.849Z,73.88
2023-03-25T07:39:34.834Z,73.84
2023-03-25T07:40:34.833Z,73.33
2023-03-25T07:41:34.807Z,72.31
2023-03-25T07:42:34.808Z,72.28
2023-03-25T07:43:34.783Z,71.56
2023-03-25T07:44:34.800Z,71.77
2023-03-25T07:45:44.171Z,71.67
2023-03-25T07:46:35.826Z,71.84
2023-03-25T07:47:34.795Z,70.82
2023-03-25T07:48:34.740Z,70.48
2023-03-25T07:49:34.725Z,69.56
2023-03-25T07:50:34.728Z,69.67
2023-03-25T07:51:34.697Z,69.76
2023-03-25T07:52:34.690Z,69.67
2023-03-25T07:53:34.675Z,69.67
2023-03-25T07:54:34.690Z,69.19
2023-03-25T07:55:34.676Z,69.29
2023-03-25T07:56:34.712Z,69.49
2023-03-25T07:57:34.640Z,69.80
2023-03-25T07:58:34.626Z,68.78
2023-03-25T07:59:52.353Z,69.19
2023-03-25T08:00:52.319Z,68.98
2023-03-25T08:01:52.356Z,68.68
2023-03-25T08:02:52.398Z,69.59
2023-03-25T08:03:52.365Z,69.42
2023-03-25T08:04:52.275Z,69.63
2023-03-25T08:05:52.490Z,70.21
2023-03-25T08:06:52.265Z,69.29
2023-03-25T08:07:52.252Z,68.88
2023-03-25T08:08:52.254Z,69.46
2023-03-25T08:09:52.259Z,69.09
2023-03-25T08:10:52.213Z,69.26
2023-03-25T08:11:52.201Z,69.23
2023-03-25T08:12:52.206Z,68.99
2023-03-25T08:13:52.199Z,67.74
2023-03-25T08:14:52.229Z,67.50
2023-03-25T08:15:52.328Z,66.25
2023-03-25T08:16:52.204Z,65.33
2023-03-25T08:17:52.168Z,65.16
2023-03-25T08:18:52.150Z,65.50
2023-03-25T08:19:52.130Z,65.60
2023-03-25T08:20:52.108Z,66.11
2023-03-25T08:21:52.089Z,66.21
2023-03-25T08:22:52.086Z,65.30
2023-03-25T08:23:52.062Z,65.09
2023-03-25T08:24:52.066Z,64.99
2023-03-25T08:25:52.170Z,64.79
2023-03-25T08:26:52.027Z,64.96
2023-03-25T08:27:52.026Z,64.96
2023-03-25T08:28:52.011Z,64.32
2023-03-25T08:29:52.024Z,63.81
2023-03-25T08:30:51.987Z,64.42
2023-03-25T08:31:52.070Z,64.12
2023-03-25T08:32:52.037Z,63.51
2023-03-25T08:33:51.962Z,63.30
2023-03-25T08:34:51.974Z,63.40
2023-03-25T08:35:52.754Z,63.40
2023-03-25T08:36:51.962Z,63.64
2023-03-25T08:37:51.949Z,63.33
2023-03-25T08:38:51.906Z,63.71
2023-03-25T08:39:51.905Z,63.20
2023-03-25T08:40:51.891Z,63.60
2023-03-25T08:41:51.894Z,64.04
2023-03-25T08:42:51.866Z,63.60
2023-03-25T08:43:51.845Z,63.51
2023-03-25T08:44:51.855Z,63.07
2023-03-25T08:45:52.118Z,63.07
2023-03-25T08:46:51.839Z,62.97
2023-03-25T08:47:51.819Z,63.07
2023-03-25T08:48:51.812Z,63.07
2023-03-25T08:49:51.790Z,63.20
2023-03-25T08:50:51.801Z,62.79
2023-03-25T08:51:51.783Z,63.48
2023-03-25T08:52:51.755Z,63.37
2023-03-25T08:53:51.729Z,63.51
2023-03-25T08:54:51.756Z,63.40
2023-03-25T08:55:52.009Z,63.91
2023-03-25T08:56:51.760Z,63.36
2023-03-25T08:57:51.730Z,64.92
2023-03-25T08:58:51.681Z,65.22
2023-03-25T08:59:51.682Z,65.66
2023-03-25T09:00:51.655Z,65.49
2023-03-25T09:01:53.302Z,66.61
2023-03-25T09:02:51.750Z,66.50
2023-03-25T09:03:51.656Z,66.27
2023-03-25T09:04:51.663Z,65.36
2023-03-25T09:05:51.767Z,65.08
2023-03-25T09:07:11.018Z,64.64
2023-03-25T09:07:52.614Z,65.25
2023-03-25T09:08:51.573Z,65.16
2023-03-25T09:09:51.559Z,64.64
2023-03-25T09:10:51.629Z,64.75
2023-03-25T09:11:51.554Z,64.72
2023-03-25T09:12:51.532Z,64.07
2023-03-25T09:13:51.546Z,63.46
2023-03-25T09:14:51.513Z,63.67
2023-03-25T09:15:51.738Z,63.60
2023-03-25T09:16:51.490Z,61.11
2023-03-25T09:17:51.517Z,59.27
2023-03-25T09:18:51.461Z,55.80
2023-03-25T09:19:52.865Z,56.43
2023-03-25T09:20:51.453Z,56.41
2023-03-25T09:21:51.437Z,56.74
2023-03-25T09:22:51.453Z,57.48
2023-03-25T09:23:51.421Z,58.24
2023-03-25T09:24:51.410Z,59.46
2023-03-25T09:25:51.648Z,59.56
2023-03-25T09:26:51.384Z,59.16
2023-03-25T09:27:51.367Z,59.74
2023-03-25T09:28:51.356Z,59.46
2023-03-25T09:29:51.359Z,59.46
2023-03-25T09:30:51.345Z,59.48
2023-03-25T09:31:51.348Z,60.30
2023-03-25T09:32:51.362Z,60.60
2023-03-25T09:33:51.327Z,60.83
2023-03-25T09:34:51.606Z,61.17
2023-03-25T09:35:51.436Z,61.47
2023-03-25T09:36:51.269Z,61.68
2023-03-25T09:37:52.220Z,61.91
2023-03-25T09:38:51.266Z,61.94
2023-03-25T09:39:51.232Z,62.45
2023-03-25T09:40:51.239Z,62.35
2023-03-25T09:41:52.081Z,62.45
2023-03-25T09:42:51.209Z,62.48
2023-03-25T09:43:51.184Z,62.07
2023-03-25T09:44:51.180Z,62.37
2023-03-25T09:45:51.359Z,62.27
2023-03-25T09:46:51.176Z,61.78
2023-03-25T09:47:51.208Z,60.02
2023-03-25T09:48:51.126Z,60.22
2023-03-25T09:49:51.115Z,60.40
2023-03-25T09:50:51.115Z,59.72
2023-03-25T09:51:51.131Z,59.52
2023-03-25T09:52:51.088Z,59.82
2023-03-25T09:53:51.093Z,59.48
2023-03-25T09:54:51.081Z,59.23
2023-03-25T09:55:51.223Z,56.23
2023-03-25T09:56:51.128Z,53.42
2023-03-25T09:57:51.036Z,53.72
2023-03-25T09:58:51.064Z,53.55
2023-03-25T09:59:51.530Z,53.85
2023-03-25T10:00:51.040Z,54.79
2023-03-25T10:01:51.037Z,53.58
2023-03-25T10:02:51.004Z,54.33
2023-03-25T10:03:51.018Z,55.19
2023-03-25T10:04:50.960Z,55.35
2023-03-25T10:05:51.154Z,56.59
2023-03-25T10:06:50.953Z,56.41
2023-03-25T10:07:51.608Z,58.06
2023-03-25T10:08:50.927Z,57.84
2023-03-25T10:09:50.920Z,57.43
2023-03-25T10:10:50.920Z,57.66
2023-03-25T10:11:50.892Z,58.09
2023-03-25T10:12:50.870Z,58.70
2023-03-25T10:13:50.869Z,58.94
2023-03-25T10:14:50.849Z,59.03
2023-03-25T10:15:51.032Z,59.24
2023-03-25T10:16:50.832Z,59.44
2023-03-25T10:17:50.841Z,59.16
2023-03-25T10:18:50.853Z,59.67
2023-03-25T10:19:50.811Z,59.64
2023-03-25T10:20:50.777Z,57.97
2023-03-25T10:21:50.762Z,57.17
2023-03-25T10:22:50.757Z,55.30
2023-03-25T10:23:50.752Z,55.07
2023-03-25T10:24:50.766Z,54.74
2023-03-25T10:25:50.854Z,53.60
2023-03-25T10:26:50.762Z,54.03
2023-03-25T10:27:50.712Z,53.50
2023-03-25T10:28:50.709Z,53.83
2023-03-25T10:29:50.679Z,53.40
2023-03-25T10:30:50.688Z,53.47
2023-03-25T10:31:50.739Z,52.46
2023-03-25T10:32:50.656Z,52.34
2023-03-25T10:33:50.638Z,51.91
2023-03-25T10:34:50.654Z,51.93
2023-03-25T10:35:50.899Z,52.67
2023-03-25T10:36:50.612Z,52.56
2023-03-25T10:37:50.596Z,52.59
2023-03-25T10:38:50.592Z,53.25
2023-03-25T10:39:50.621Z,53.78
2023-03-25T10:40:50.662Z,54.38
2023-03-25T10:41:50.552Z,54.59
2023-03-25T10:42:50.568Z,54.74
2023-03-25T10:43:50.539Z,53.60
2023-03-25T10:44:50.534Z,53.38
2023-03-25T10:45:50.777Z,52.74
2023-03-25T10:46:50.504Z,52.44
2023-03-25T10:47:50.557Z,52.74
2023-03-25T10:48:50.484Z,52.84
2023-03-25T10:49:50.469Z,52.21
2023-03-25T10:50:50.466Z,52.89
2023-03-25T10:51:50.454Z,53.60
2023-03-25T10:52:50.434Z,53.17
2023-03-25T10:53:50.432Z,52.54
2023-03-25T10:54:50.414Z,53.05
2023-03-25T10:55:50.508Z,52.54
2023-03-25T10:56:50.416Z,52.46
2023-03-25T10:57:50.374Z,53.47
2023-03-25T10:58:50.394Z,53.34
2023-03-25T10:59:50.384Z,52.84
2023-03-25T11:00:50.362Z,53.34
2023-03-25T11:01:50.330Z,53.14
2023-03-25T11:02:50.464Z,53.07
2023-03-25T11:03:50.320Z,53.50
2023-03-25T11:04:50.308Z,53.52
2023-03-25T11:05:50.434Z,54.86
2023-03-25T11:06:50.279Z,55.19
2023-03-25T11:07:50.276Z,55.40
2023-03-25T11:08:50.284Z,55.60
2023-03-25T11:09:50.242Z,56.13
2023-03-25T11:10:50.229Z,55.90
2023-03-25T11:11:50.246Z,55.90
2023-03-25T11:12:50.218Z,55.80
2023-03-25T11:13:50.195Z,56.03
2023-03-25T11:14:50.210Z,55.43
2023-03-25T11:15:50.464Z,55.90
2023-03-25T11:16:50.233Z,54.97
2023-03-25T11:17:50.256Z,55.47
2023-03-25T11:18:50.153Z,55.37
2023-03-25T11:19:50.137Z,55.57
2023-03-25T11:20:50.130Z,55.47
2023-03-25T11:21:50.128Z,55.50
2023-03-25T11:22:50.125Z,55.19
2023-03-25T11:23:50.144Z,56.05
2023-03-25T11:24:50.089Z,56.26
2023-03-25T11:25:50.284Z,56.31
2023-03-25T11:26:50.056Z,57.03
2023-03-25T11:27:50.051Z,57.60
2023-03-25T11:28:50.052Z,57.28
2023-03-25T11:29:50.028Z,56.05
2023-03-25T11:30:50.049Z,57.40
2023-03-25T11:31:49.992Z,58.01
2023-03-25T11:32:50.041Z,57.23
2023-03-25T11:33:49.986Z,57.73
2023-03-25T11:34:50.015Z,57.43
2023-03-25T11:35:50.243Z,57.53
2023-03-25T11:36:49.941Z,57.53
2023-03-25T11:37:49.952Z,58.04
2023-03-25T11:38:49.925Z,56.52
2023-03-25T11:39:49.932Z,56.52
2023-03-25T11:40:49.904Z,57.73
2023-03-25T11:41:49.902Z,57.93
2023-03-25T11:42:50.008Z,58.06
2023-03-25T11:43:49.868Z,57.86
2023-03-25T11:44:49.890Z,58.58
2023-03-25T11:45:49.963Z,58.91
2023-03-25T11:46:49.854Z,58.88
2023-03-25T11:47:49.863Z,58.78
2023-03-25T11:48:49.816Z,58.98
2023-03-25T11:49:49.791Z,58.24
2023-03-25T11:50:49.800Z,58.45
2023-03-25T11:51:51.824Z,58.45
2023-03-25T11:52:49.764Z,58.24
2023-03-25T11:53:49.758Z,58.31
2023-03-25T11:54:49.765Z,57.91
2023-03-25T11:55:49.998Z,58.42
2023-03-25T11:56:49.805Z,58.42
2023-03-25T11:57:49.701Z,58.45
2023-03-25T11:58:49.708Z,58.75
2023-03-25T11:59:49.723Z,59.36
2023-03-25T12:00:49.708Z,59.05
2023-03-25T12:01:49.682Z,59.26
2023-03-25T12:02:49.803Z,59.12
2023-03-25T12:03:49.763Z,58.42
2023-03-25T12:04:49.639Z,58.72
2023-03-25T12:05:49.794Z,58.80
2023-03-25T12:06:49.657Z,59.30
2023-03-25T12:07:49.615Z,58.90
2023-03-25T12:08:49.607Z,58.29
2023-03-25T12:09:49.582Z,58.72
2023-03-25T12:10:49.567Z,58.52
2023-03-25T12:11:49.553Z,58.95
2023-03-25T12:12:49.555Z,58.85
2023-03-25T12:13:49.528Z,59.16
2023-03-25T12:14:49.535Z,58.95
2023-03-25T12:15:49.697Z,59.26
2023-03-25T12:16:49.507Z,59.05
2023-03-25T12:17:49.536Z,59.23
2023-03-25T12:18:49.504Z,58.72
2023-03-25T12:19:49.470Z,58.62
2023-03-25T12:20:49.624Z,58.59
2023-03-25T12:21:49.446Z,57.78
2023-03-25T12:22:49.464Z,58.29
2023-03-25T12:23:49.448Z,57.88
2023-03-25T12:24:49.417Z,57.07
2023-03-25T12:25:49.823Z,56.16
2023-03-25T12:26:49.391Z,56.36
2023-03-25T12:27:49.376Z,55.98
2023-03-25T12:28:49.383Z,56.29
2023-03-25T12:29:49.377Z,55.98
2023-03-25T12:30:49.543Z,55.60
2023-03-25T12:31:49.384Z,56.52
2023-03-25T12:32:49.377Z,56.09
2023-03-25T12:33:49.310Z,56.59
2023-03-25T12:34:49.353Z,56.59
2023-03-25T12:35:49.326Z,56.31
2023-03-25T12:36:49.282Z,56.52
2023-03-25T12:37:49.285Z,56.99
2023-03-25T12:38:49.254Z,56.49
2023-03-25T12:39:49.250Z,56.29
2023-03-25T12:40:49.450Z,56.46
2023-03-25T12:41:49.223Z,56.46
2023-03-25T12:42:49.218Z,56.29
2023-03-25T12:43:49.201Z,56.49
2023-03-25T12:44:49.213Z,56.46
2023-03-25T12:45:49.237Z,56.67
2023-03-25T12:46:49.190Z,55.98
2023-03-25T12:47:49.200Z,55.98
2023-03-25T12:48:49.152Z,56.09
2023-03-25T12:49:49.144Z,56.79
2023-03-25T12:50:49.363Z,55.45
2023-03-25T12:51:49.135Z,56.67
2023-03-25T12:52:49.121Z,55.96